sensor_id;sensor_type;location;lat;lon;timestamp;temperature;humidity
48535;DHT22;34323;52.022;5.686;2023-08-12T00:00:32;26.60;99.90
48535;DHT22;34323;52.022;5.686;2023-08-12T00:02:58;26.60;99.90
48535;DHT22;34323;52.022;5.686;2023-08-12T00:05:23;26.50;99.90
48535;DHT22;34323;52.022;5.686;2023-08-12T00:07:49;26.60;99.90
48535;DHT22;34323;52.022;5.686;2023-08-12T00:10:15;26.70;99.90
48535;DHT22;34323;52.022;5.686;2023-08-12T00:12:41;26.70;99.90
48535;DHT22;34323;52.022;5.686;2023-08-12T00:15:08;26.70;99.90
48535;DHT22;34323;52.022;5.686;2023-08-12T00:17:35;26.70;99.90
48535;DHT22;34323;52.022;5.686;2023-08-12T00:20:03;26.80;99.90
48535;DHT22;34323;52.022;5.686;2023-08-12T00:22:34;26.80;99.90
48535;DHT22;34323;52.022;5.686;2023-08-12T00:25:00;26.80;99.90
48535;DHT22;34323;52.022;5.686;2023-08-12T00:27:26;26.70;99.90
48535;DHT22;34323;52.022;5.686;2023-08-12T00:29:52;26.90;99.90
48535;DHT22;34323;52.022;5.686;2023-08-12T00:32:18;26.90;99.90
48535;DHT22;34323;52.022;5.686;2023-08-12T00:34:44;27.00;99.90
48535;DHT22;34323;52.022;5.686;2023-08-12T00:37:09;26.90;99.90
48535;DHT22;34323;52.022;5.686;2023-08-12T00:39:35;26.80;99.90
48535;DHT22;34323;52.022;5.686;2023-08-12T00:42:01;26.80;99.90
48535;DHT22;34323;52.022;5.686;2023-08-12T00:44:27;26.80;99.90
48535;DHT22;34323;52.022;5.686;2023-08-12T00:46:52;26.80;99.90
48535;DHT22;34323;52.022;5.686;2023-08-12T00:49:21;26.70;99.90
48535;DHT22;34323;52.022;5.686;2023-08-12T00:51:50;26.70;99.90
48535;DHT22;34323;52.022;5.686;2023-08-12T00:54:16;26.80;99.90
48535;DHT22;34323;52.022;5.686;2023-08-12T00:56:43;26.80;99.90
48535;DHT22;34323;52.022;5.686;2023-08-12T00:59:10;26.90;99.90
48535;DHT22;34323;52.022;5.686;2023-08-12T01:01:40;26.90;99.90
48535;DHT22;34323;52.022;5.686;2023-08-12T01:04:08;26.80;99.90
48535;DHT22;34323;52.022;5.686;2023-08-12T01:06:34;26.70;99.90
48535;DHT22;34323;52.022;5.686;2023-08-12T01:09:01;26.70;99.90
48535;DHT22;34323;52.022;5.686;2023-08-12T01:14:25;26.80;99.90
48535;DHT22;34323;52.022;5.686;2023-08-12T01:16:58;26.70;99.90
48535;DHT22;34323;52.022;5.686;2023-08-12T01:19:36;26.70;99.90
48535;DHT22;34323;52.022;5.686;2023-08-12T01:22:03;26.80;99.90
48535;DHT22;34323;52.022;5.686;2023-08-12T01:24:38;26.80;99.90
48535;DHT22;34323;52.022;5.686;2023-08-12T01:27:05;26.80;99.90
48535;DHT22;34323;52.022;5.686;2023-08-12T01:29:36;26.70;99.90
48535;DHT22;34323;52.022;5.686;2023-08-12T01:35:17;26.60;99.90
48535;DHT22;34323;52.022;5.686;2023-08-12T01:37:46;26.50;99.90
48535;DHT22;34323;52.022;5.686;2023-08-12T01:40:14;26.50;99.90
48535;DHT22;34323;52.022;5.686;2023-08-12T01:42:41;26.40;99.90
48535;DHT22;34323;52.022;5.686;2023-08-12T01:45:07;26.50;99.90
48535;DHT22;34323;52.022;5.686;2023-08-12T01:47:33;26.70;99.90
48535;DHT22;34323;52.022;5.686;2023-08-12T01:49:58;26.80;99.90
48535;DHT22;34323;52.022;5.686;2023-08-12T01:52:25;26.80;99.90
48535;DHT22;34323;52.022;5.686;2023-08-12T01:54:51;26.70;99.90
48535;DHT22;34323;52.022;5.686;2023-08-12T01:57:16;26.60;99.90
48535;DHT22;34323;52.022;5.686;2023-08-12T01:59:42;26.50;99.90
48535;DHT22;34323;52.022;5.686;2023-08-12T02:02:11;26.60;99.90
48535;DHT22;34323;52.022;5.686;2023-08-12T02:04:38;26.60;99.90
48535;DHT22;34323;52.022;5.686;2023-08-12T02:07:04;26.80;99.90
48535;DHT22;34323;52.022;5.686;2023-08-12T02:09:30;26.70;99.90
48535;DHT22;34323;52.022;5.686;2023-08-12T02:11:56;26.70;99.90
48535;DHT22;34323;52.022;5.686;2023-08-12T02:14:22;26.70;99.90
48535;DHT22;34323;52.022;5.686;2023-08-12T02:16:48;26.70;99.90
48535;DHT22;34323;52.022;5.686;2023-08-12T02:19:13;26.60;99.90
48535;DHT22;34323;52.022;5.686;2023-08-12T02:21:39;26.60;99.90
48535;DHT22;34323;52.022;5.686;2023-08-12T02:24:05;26.60;99.90
48535;DHT22;34323;52.022;5.686;2023-08-12T02:26:31;26.60;99.90
48535;DHT22;34323;52.022;5.686;2023-08-12T02:28:57;26.50;99.90
48535;DHT22;34323;52.022;5.686;2023-08-12T02:31:22;26.50;99.90
48535;DHT22;34323;52.022;5.686;2023-08-12T02:33:48;26.50;99.90
48535;DHT22;34323;52.022;5.686;2023-08-12T02:36:15;26.50;99.90
48535;DHT22;34323;52.022;5.686;2023-08-12T02:38:41;26.40;99.90
48535;DHT22;34323;52.022;5.686;2023-08-12T02:41:07;26.40;99.90
48535;DHT22;34323;52.022;5.686;2023-08-12T02:43:35;26.30;99.90
48535;DHT22;34323;52.022;5.686;2023-08-12T02:46:01;26.40;99.90
48535;DHT22;34323;52.022;5.686;2023-08-12T02:48:27;26.40;99.90
48535;DHT22;34323;52.022;5.686;2023-08-12T02:50:52;26.40;99.90
48535;DHT22;34323;52.022;5.686;2023-08-12T02:53:18;26.30;99.90
48535;DHT22;34323;52.022;5.686;2023-08-12T02:55:47;26.30;99.90
48535;DHT22;34323;52.022;5.686;2023-08-12T02:58:12;26.20;99.90
48535;DHT22;34323;52.022;5.686;2023-08-12T03:00:41;26.30;99.90
48535;DHT22;34323;52.022;5.686;2023-08-12T03:03:09;26.40;99.90
48535;DHT22;34323;52.022;5.686;2023-08-12T03:05:35;26.40;99.90
48535;DHT22;34323;52.022;5.686;2023-08-12T03:08:01;26.30;99.90
48535;DHT22;34323;52.022;5.686;2023-08-12T03:10:29;26.40;99.90
48535;DHT22;34323;52.022;5.686;2023-08-12T03:12:55;26.30;99.90
48535;DHT22;34323;52.022;5.686;2023-08-12T03:15:21;26.40;99.90
48535;DHT22;34323;52.022;5.686;2023-08-12T03:17:46;26.40;99.90
48535;DHT22;34323;52.022;5.686;2023-08-12T03:20:12;26.40;99.90
48535;DHT22;34323;52.022;5.686;2023-08-12T03:22:38;26.40;99.90
48535;DHT22;34323;52.022;5.686;2023-08-12T03:25:05;26.50;99.90
48535;DHT22;34323;52.022;5.686;2023-08-12T03:27:31;26.50;99.90
48535;DHT22;34323;52.022;5.686;2023-08-12T03:29:56;26.50;99.90
48535;DHT22;34323;52.022;5.686;2023-08-12T03:32:23;26.50;99.90
48535;DHT22;34323;52.022;5.686;2023-08-12T03:34:49;26.50;99.90
48535;DHT22;34323;52.022;5.686;2023-08-12T03:37:15;26.40;99.90
48535;DHT22;34323;52.022;5.686;2023-08-12T03:39:41;26.60;99.90
48535;DHT22;34323;52.022;5.686;2023-08-12T03:42:07;26.40;99.90
48535;DHT22;34323;52.022;5.686;2023-08-12T03:44:32;26.40;99.90
48535;DHT22;34323;52.022;5.686;2023-08-12T03:46:58;26.40;99.90
48535;DHT22;34323;52.022;5.686;2023-08-12T03:49:24;26.40;99.90
48535;DHT22;34323;52.022;5.686;2023-08-12T03:51:49;26.50;99.90
48535;DHT22;34323;52.022;5.686;2023-08-12T03:54:15;26.40;99.90
48535;DHT22;34323;52.022;5.686;2023-08-12T03:56:41;26.40;99.90
48535;DHT22;34323;52.022;5.686;2023-08-12T03:59:06;26.40;99.90
48535;DHT22;34323;52.022;5.686;2023-08-12T04:01:32;26.20;99.90
48535;DHT22;34323;52.022;5.686;2023-08-12T04:03:58;26.20;99.90
48535;DHT22;34323;52.022;5.686;2023-08-12T04:06:23;26.20;99.90
48535;DHT22;34323;52.022;5.686;2023-08-12T04:08:49;26.30;99.90
48535;DHT22;34323;52.022;5.686;2023-08-12T04:11:15;26.30;99.90
48535;DHT22;34323;52.022;5.686;2023-08-12T04:13:40;26.40;99.90
48535;DHT22;34323;52.022;5.686;2023-08-12T04:16:06;26.30;99.90
48535;DHT22;34323;52.022;5.686;2023-08-12T04:18:32;26.40;99.90
48535;DHT22;34323;52.022;5.686;2023-08-12T04:20:58;26.50;99.90
48535;DHT22;34323;52.022;5.686;2023-08-12T04:23:23;26.60;99.90
48535;DHT22;34323;52.022;5.686;2023-08-12T04:25:51;26.70;99.90
48535;DHT22;34323;52.022;5.686;2023-08-12T04:28:17;26.70;99.90
48535;DHT22;34323;52.022;5.686;2023-08-12T04:30:45;26.70;99.90
48535;DHT22;34323;52.022;5.686;2023-08-12T04:33:12;26.60;99.90
48535;DHT22;34323;52.022;5.686;2023-08-12T04:35:39;26.50;99.90
48535;DHT22;34323;52.022;5.686;2023-08-12T04:38:04;26.60;99.90
48535;DHT22;34323;52.022;5.686;2023-08-12T04:40:30;26.50;99.90
48535;DHT22;34323;52.022;5.686;2023-08-12T04:42:58;26.70;99.90
48535;DHT22;34323;52.022;5.686;2023-08-12T04:45:24;26.90;99.90
48535;DHT22;34323;52.022;5.686;2023-08-12T04:47:49;26.90;99.90
48535;DHT22;34323;52.022;5.686;2023-08-12T04:50:15;26.70;99.90
48535;DHT22;34323;52.022;5.686;2023-08-12T04:52:41;26.80;99.90
48535;DHT22;34323;52.022;5.686;2023-08-12T04:55:07;27.00;99.90
48535;DHT22;34323;52.022;5.686;2023-08-12T04:57:33;26.90;99.90
48535;DHT22;34323;52.022;5.686;2023-08-12T04:59:59;26.80;99.90
48535;DHT22;34323;52.022;5.686;2023-08-12T05:02:25;26.80;99.90
48535;DHT22;34323;52.022;5.686;2023-08-12T05:04:51;26.90;99.90
48535;DHT22;34323;52.022;5.686;2023-08-12T05:07:17;26.80;99.90
48535;DHT22;34323;52.022;5.686;2023-08-12T05:09:43;26.80;99.90
48535;DHT22;34323;52.022;5.686;2023-08-12T05:12:10;26.80;99.90
48535;DHT22;34323;52.022;5.686;2023-08-12T05:14:36;26.60;99.90
48535;DHT22;34323;52.022;5.686;2023-08-12T05:17:02;26.60;99.90
48535;DHT22;34323;52.022;5.686;2023-08-12T05:19:28;26.60;99.90
48535;DHT22;34323;52.022;5.686;2023-08-12T05:21:54;26.50;99.90
48535;DHT22;34323;52.022;5.686;2023-08-12T05:24:19;26.60;99.90
48535;DHT22;34323;52.022;5.686;2023-08-12T05:26:46;26.50;99.90
48535;DHT22;34323;52.022;5.686;2023-08-12T05:29:12;26.40;99.90
48535;DHT22;34323;52.022;5.686;2023-08-12T05:31:38;26.40;99.90
48535;DHT22;34323;52.022;5.686;2023-08-12T05:34:04;26.60;99.90
48535;DHT22;34323;52.022;5.686;2023-08-12T05:36:30;26.60;99.90
48535;DHT22;34323;52.022;5.686;2023-08-12T05:38:56;26.60;99.90
48535;DHT22;34323;52.022;5.686;2023-08-12T05:41:21;26.40;99.90
48535;DHT22;34323;52.022;5.686;2023-08-12T05:43:48;26.60;99.90
48535;DHT22;34323;52.022;5.686;2023-08-12T05:46:14;26.60;99.90
48535;DHT22;34323;52.022;5.686;2023-08-12T05:48:40;26.60;99.90
48535;DHT22;34323;52.022;5.686;2023-08-12T05:51:06;26.60;99.90
48535;DHT22;34323;52.022;5.686;2023-08-12T05:53:32;26.60;99.90
48535;DHT22;34323;52.022;5.686;2023-08-12T05:55:58;26.70;99.90
48535;DHT22;34323;52.022;5.686;2023-08-12T05:58:24;26.50;99.90
48535;DHT22;34323;52.022;5.686;2023-08-12T06:00:50;26.60;99.90
48535;DHT22;34323;52.022;5.686;2023-08-12T06:03:16;26.60;99.90
48535;DHT22;34323;52.022;5.686;2023-08-12T06:05:45;26.60;99.90
48535;DHT22;34323;52.022;5.686;2023-08-12T06:08:12;26.70;99.90
48535;DHT22;34323;52.022;5.686;2023-08-12T06:10:37;26.60;99.90
48535;DHT22;34323;52.022;5.686;2023-08-12T06:13:03;26.50;99.90
48535;DHT22;34323;52.022;5.686;2023-08-12T06:15:29;26.40;99.90
48535;DHT22;34323;52.022;5.686;2023-08-12T06:17:55;26.40;99.90
48535;DHT22;34323;52.022;5.686;2023-08-12T06:20:22;26.40;99.90
48535;DHT22;34323;52.022;5.686;2023-08-12T06:22:48;26.50;99.90
48535;DHT22;34323;52.022;5.686;2023-08-12T06:25:14;26.60;99.90
48535;DHT22;34323;52.022;5.686;2023-08-12T06:27:39;26.60;99.90
48535;DHT22;34323;52.022;5.686;2023-08-12T06:30:05;26.80;99.90
48535;DHT22;34323;52.022;5.686;2023-08-12T06:32:33;26.60;99.90
48535;DHT22;34323;52.022;5.686;2023-08-12T06:34:59;26.40;99.90
48535;DHT22;34323;52.022;5.686;2023-08-12T06:37:24;26.20;99.90
48535;DHT22;34323;52.022;5.686;2023-08-12T06:39:50;26.10;99.90
48535;DHT22;34323;52.022;5.686;2023-08-12T06:42:16;26.20;99.90
48535;DHT22;34323;52.022;5.686;2023-08-12T06:44:42;26.20;99.90
48535;DHT22;34323;52.022;5.686;2023-08-12T06:47:07;26.10;99.90
48535;DHT22;34323;52.022;5.686;2023-08-12T06:49:33;25.90;99.90
48535;DHT22;34323;52.022;5.686;2023-08-12T06:51:59;26.10;99.90
48535;DHT22;34323;52.022;5.686;2023-08-12T06:54:24;26.20;99.90
48535;DHT22;34323;52.022;5.686;2023-08-12T06:56:50;26.00;99.90
48535;DHT22;34323;52.022;5.686;2023-08-12T06:59:16;26.10;99.90
48535;DHT22;34323;52.022;5.686;2023-08-12T07:01:44;26.20;99.90
48535;DHT22;34323;52.022;5.686;2023-08-12T07:04:09;26.20;99.90
48535;DHT22;34323;52.022;5.686;2023-08-12T07:06:35;26.40;99.90
48535;DHT22;34323;52.022;5.686;2023-08-12T07:09:01;26.40;99.90
48535;DHT22;34323;52.022;5.686;2023-08-12T07:11:26;26.50;99.90
48535;DHT22;34323;52.022;5.686;2023-08-12T07:13:52;26.60;99.90
48535;DHT22;34323;52.022;5.686;2023-08-12T07:16:18;26.70;99.90
48535;DHT22;34323;52.022;5.686;2023-08-12T07:18:44;26.80;99.90
48535;DHT22;34323;52.022;5.686;2023-08-12T07:21:09;26.70;99.90
48535;DHT22;34323;52.022;5.686;2023-08-12T07:23:35;26.80;99.90
48535;DHT22;34323;52.022;5.686;2023-08-12T07:26:01;27.00;99.90
48535;DHT22;34323;52.022;5.686;2023-08-12T07:28:27;26.90;99.90
48535;DHT22;34323;52.022;5.686;2023-08-12T07:30:52;26.90;99.90
48535;DHT22;34323;52.022;5.686;2023-08-12T07:33:19;26.80;99.90
48535;DHT22;34323;52.022;5.686;2023-08-12T07:35:45;27.00;99.90
48535;DHT22;34323;52.022;5.686;2023-08-12T07:38:10;27.00;99.90
48535;DHT22;34323;52.022;5.686;2023-08-12T07:40:36;26.90;99.90
48535;DHT22;34323;52.022;5.686;2023-08-12T07:43:02;26.90;99.90
48535;DHT22;34323;52.022;5.686;2023-08-12T07:45:28;26.80;99.90
48535;DHT22;34323;52.022;5.686;2023-08-12T07:47:53;26.70;99.90
48535;DHT22;34323;52.022;5.686;2023-08-12T07:50:19;26.40;99.90
48535;DHT22;34323;52.022;5.686;2023-08-12T07:52:45;26.40;99.90
48535;DHT22;34323;52.022;5.686;2023-08-12T07:55:11;26.40;99.90
48535;DHT22;34323;52.022;5.686;2023-08-12T07:57:37;26.60;99.90
48535;DHT22;34323;52.022;5.686;2023-08-12T08:00:04;26.60;99.90
48535;DHT22;34323;52.022;5.686;2023-08-12T08:02:30;26.40;99.90
48535;DHT22;34323;52.022;5.686;2023-08-12T08:04:56;26.70;99.90
48535;DHT22;34323;52.022;5.686;2023-08-12T08:07:22;26.90;99.90
48535;DHT22;34323;52.022;5.686;2023-08-12T08:09:48;26.90;99.90
48535;DHT22;34323;52.022;5.686;2023-08-12T08:12:13;27.10;99.90
48535;DHT22;34323;52.022;5.686;2023-08-12T08:14:39;27.20;99.90
48535;DHT22;34323;52.022;5.686;2023-08-12T08:17:05;27.30;99.90
48535;DHT22;34323;52.022;5.686;2023-08-12T08:19:31;27.20;99.90
48535;DHT22;34323;52.022;5.686;2023-08-12T08:21:58;27.20;99.90
48535;DHT22;34323;52.022;5.686;2023-08-12T08:24:23;27.20;99.90
48535;DHT22;34323;52.022;5.686;2023-08-12T08:26:49;27.40;99.90
48535;DHT22;34323;52.022;5.686;2023-08-12T08:29:15;27.60;99.90
48535;DHT22;34323;52.022;5.686;2023-08-12T08:31:40;27.60;99.90
48535;DHT22;34323;52.022;5.686;2023-08-12T08:34:06;27.50;99.90
48535;DHT22;34323;52.022;5.686;2023-08-12T08:36:32;27.40;99.90
48535;DHT22;34323;52.022;5.686;2023-08-12T08:38:57;27.40;99.90
48535;DHT22;34323;52.022;5.686;2023-08-12T08:41:24;27.40;99.90
48535;DHT22;34323;52.022;5.686;2023-08-12T08:43:50;27.40;99.90
48535;DHT22;34323;52.022;5.686;2023-08-12T08:46:18;27.20;99.90
48535;DHT22;34323;52.022;5.686;2023-08-12T08:48:45;27.20;99.90
48535;DHT22;34323;52.022;5.686;2023-08-12T08:51:12;26.50;99.90
48535;DHT22;34323;52.022;5.686;2023-08-12T08:53:39;26.30;99.90
48535;DHT22;34323;52.022;5.686;2023-08-12T08:56:06;26.30;99.90
48535;DHT22;34323;52.022;5.686;2023-08-12T08:58:32;26.00;99.90
48535;DHT22;34323;52.022;5.686;2023-08-12T09:00:58;26.10;99.90
48535;DHT22;34323;52.022;5.686;2023-08-12T09:03:25;26.20;99.90
48535;DHT22;34323;52.022;5.686;2023-08-12T09:05:52;26.40;99.90
48535;DHT22;34323;52.022;5.686;2023-08-12T09:08:18;26.60;99.90
48535;DHT22;34323;52.022;5.686;2023-08-12T09:10:46;26.90;99.90
48535;DHT22;34323;52.022;5.686;2023-08-12T09:13:12;26.60;99.90
48535;DHT22;34323;52.022;5.686;2023-08-12T09:15:39;26.50;99.90
48535;DHT22;34323;52.022;5.686;2023-08-12T09:18:05;26.50;99.90
48535;DHT22;34323;52.022;5.686;2023-08-12T09:20:32;26.60;99.90
48535;DHT22;34323;52.022;5.686;2023-08-12T09:22:59;26.50;99.90
48535;DHT22;34323;52.022;5.686;2023-08-12T09:25:27;26.40;99.90
48535;DHT22;34323;52.022;5.686;2023-08-12T09:28:03;26.10;99.90
48535;DHT22;34323;52.022;5.686;2023-08-12T09:30:30;25.90;99.90
48535;DHT22;34323;52.022;5.686;2023-08-12T09:33:04;25.60;99.90
48535;DHT22;34323;52.022;5.686;2023-08-12T09:35:34;25.60;99.90
48535;DHT22;34323;52.022;5.686;2023-08-12T09:38:05;25.80;99.90
48535;DHT22;34323;52.022;5.686;2023-08-12T09:40:32;25.80;99.90
48535;DHT22;34323;52.022;5.686;2023-08-12T09:42:59;26.10;99.90
48535;DHT22;34323;52.022;5.686;2023-08-12T09:45:25;26.40;99.90
48535;DHT22;34323;52.022;5.686;2023-08-12T09:47:52;26.40;99.90
48535;DHT22;34323;52.022;5.686;2023-08-12T09:50:24;26.40;99.90
48535;DHT22;34323;52.022;5.686;2023-08-12T09:52:51;26.50;99.90
48535;DHT22;34323;52.022;5.686;2023-08-12T09:55:18;26.80;99.90
48535;DHT22;34323;52.022;5.686;2023-08-12T09:57:48;26.90;99.90
48535;DHT22;34323;52.022;5.686;2023-08-12T10:00:14;27.00;99.90
48535;DHT22;34323;52.022;5.686;2023-08-12T10:02:45;27.00;99.90
48535;DHT22;34323;52.022;5.686;2023-08-12T10:05:12;26.90;99.90
48535;DHT22;34323;52.022;5.686;2023-08-12T10:07:39;26.80;99.90
48535;DHT22;34323;52.022;5.686;2023-08-12T10:10:06;26.60;99.90
48535;DHT22;34323;52.022;5.686;2023-08-12T10:12:33;26.60;99.90
48535;DHT22;34323;52.022;5.686;2023-08-12T10:15:00;26.00;99.90
48535;DHT22;34323;52.022;5.686;2023-08-12T10:17:26;25.90;99.90
48535;DHT22;34323;52.022;5.686;2023-08-12T10:19:56;26.00;99.90
48535;DHT22;34323;52.022;5.686;2023-08-12T10:22:25;25.80;99.90
48535;DHT22;34323;52.022;5.686;2023-08-12T10:24:51;25.60;99.90
48535;DHT22;34323;52.022;5.686;2023-08-12T10:27:18;25.20;99.90
48535;DHT22;34323;52.022;5.686;2023-08-12T10:29:44;24.90;99.90
48535;DHT22;34323;52.022;5.686;2023-08-12T10:32:11;24.80;99.90
48535;DHT22;34323;52.022;5.686;2023-08-12T10:34:38;25.10;99.90
48535;DHT22;34323;52.022;5.686;2023-08-12T10:37:04;25.10;99.90
48535;DHT22;34323;52.022;5.686;2023-08-12T10:39:33;25.10;99.90
48535;DHT22;34323;52.022;5.686;2023-08-12T10:42:00;25.20;99.90
48535;DHT22;34323;52.022;5.686;2023-08-12T10:44:51;25.50;99.90
48535;DHT22;34323;52.022;5.686;2023-08-12T10:47:17;25.80;99.90
48535;DHT22;34323;52.022;5.686;2023-08-12T10:49:43;26.20;99.90
48535;DHT22;34323;52.022;5.686;2023-08-12T10:52:45;26.60;99.90
48535;DHT22;34323;52.022;5.686;2023-08-12T10:55:25;26.70;99.90
48535;DHT22;34323;52.022;5.686;2023-08-12T10:57:55;26.90;99.90
48535;DHT22;34323;52.022;5.686;2023-08-12T11:00:27;27.10;99.90
48535;DHT22;34323;52.022;5.686;2023-08-12T11:02:55;27.50;99.90
48535;DHT22;34323;52.022;5.686;2023-08-12T11:05:21;27.60;99.90
48535;DHT22;34323;52.022;5.686;2023-08-12T11:07:57;27.80;99.90
48535;DHT22;34323;52.022;5.686;2023-08-12T11:10:30;27.90;99.90
48535;DHT22;34323;52.022;5.686;2023-08-12T11:12:57;27.90;99.90
48535;DHT22;34323;52.022;5.686;2023-08-12T11:15:30;27.70;99.90
48535;DHT22;34323;52.022;5.686;2023-08-12T11:17:58;27.70;99.90
48535;DHT22;34323;52.022;5.686;2023-08-12T11:20:24;27.90;99.90
48535;DHT22;34323;52.022;5.686;2023-08-12T11:22:50;28.00;99.90
48535;DHT22;34323;52.022;5.686;2023-08-12T11:25:16;28.00;99.90
48535;DHT22;34323;52.022;5.686;2023-08-12T11:27:43;28.30;99.90
48535;DHT22;34323;52.022;5.686;2023-08-12T11:30:17;28.40;99.90
48535;DHT22;34323;52.022;5.686;2023-08-12T11:32:47;28.70;99.90
48535;DHT22;34323;52.022;5.686;2023-08-12T11:35:15;28.80;99.90
48535;DHT22;34323;52.022;5.686;2023-08-12T11:37:43;29.00;99.90
48535;DHT22;34323;52.022;5.686;2023-08-12T11:40:10;29.20;99.90
48535;DHT22;34323;52.022;5.686;2023-08-12T11:42:38;29.20;99.90
48535;DHT22;34323;52.022;5.686;2023-08-12T11:45:04;29.30;99.90
48535;DHT22;34323;52.022;5.686;2023-08-12T11:47:30;29.30;99.90
48535;DHT22;34323;52.022;5.686;2023-08-12T11:49:57;29.10;99.90
48535;DHT22;34323;52.022;5.686;2023-08-12T11:52:23;29.20;99.90
48535;DHT22;34323;52.022;5.686;2023-08-12T11:54:52;29.10;99.90
48535;DHT22;34323;52.022;5.686;2023-08-12T11:57:18;29.00;99.90
48535;DHT22;34323;52.022;5.686;2023-08-12T11:59:47;29.10;99.90
48535;DHT22;34323;52.022;5.686;2023-08-12T12:02:12;28.90;99.90
48535;DHT22;34323;52.022;5.686;2023-08-12T12:04:38;28.80;99.90
48535;DHT22;34323;52.022;5.686;2023-08-12T12:07:20;28.80;99.90
48535;DHT22;34323;52.022;5.686;2023-08-12T12:09:46;28.80;99.90
48535;DHT22;34323;52.022;5.686;2023-08-12T12:12:12;28.80;99.90
48535;DHT22;34323;52.022;5.686;2023-08-12T12:14:41;29.00;99.90
48535;DHT22;34323;52.022;5.686;2023-08-12T12:17:08;29.10;99.90
48535;DHT22;34323;52.022;5.686;2023-08-12T12:19:40;29.20;99.90
48535;DHT22;34323;52.022;5.686;2023-08-12T12:22:06;29.60;99.90
48535;DHT22;34323;52.022;5.686;2023-08-12T12:24:46;29.80;99.90
48535;DHT22;34323;52.022;5.686;2023-08-12T12:27:16;30.10;99.90
48535;DHT22;34323;52.022;5.686;2023-08-12T12:29:41;30.30;99.90
48535;DHT22;34323;52.022;5.686;2023-08-12T12:32:07;30.30;99.90
48535;DHT22;34323;52.022;5.686;2023-08-12T12:34:33;30.50;99.90
48535;DHT22;34323;52.022;5.686;2023-08-12T12:36:58;30.30;99.90
48535;DHT22;34323;52.022;5.686;2023-08-12T12:39:24;29.90;99.90
48535;DHT22;34323;52.022;5.686;2023-08-12T12:41:50;30.30;99.90
48535;DHT22;34323;52.022;5.686;2023-08-12T12:44:15;30.30;99.90
48535;DHT22;34323;52.022;5.686;2023-08-12T12:46:41;30.40;99.90
48535;DHT22;34323;52.022;5.686;2023-08-12T12:49:06;30.30;99.90
48535;DHT22;34323;52.022;5.686;2023-08-12T12:51:32;30.30;99.90
48535;DHT22;34323;52.022;5.686;2023-08-12T12:53:58;30.30;99.90
48535;DHT22;34323;52.022;5.686;2023-08-12T12:56:24;30.30;99.90
48535;DHT22;34323;52.022;5.686;2023-08-12T12:58:49;30.40;99.90
48535;DHT22;34323;52.022;5.686;2023-08-12T13:01:15;30.40;99.90
48535;DHT22;34323;52.022;5.686;2023-08-12T13:03:41;30.70;99.90
48535;DHT22;34323;52.022;5.686;2023-08-12T13:06:07;30.30;99.90
48535;DHT22;34323;52.022;5.686;2023-08-12T13:08:32;30.40;99.90
48535;DHT22;34323;52.022;5.686;2023-08-12T13:10:59;30.30;99.90
48535;DHT22;34323;52.022;5.686;2023-08-12T13:13:25;30.30;99.90
48535;DHT22;34323;52.022;5.686;2023-08-12T13:15:50;30.30;99.90
48535;DHT22;34323;52.022;5.686;2023-08-12T13:18:16;30.20;99.90
48535;DHT22;34323;52.022;5.686;2023-08-12T13:20:42;30.40;99.90
48535;DHT22;34323;52.022;5.686;2023-08-12T13:23:08;30.60;99.90
48535;DHT22;34323;52.022;5.686;2023-08-12T13:25:34;30.70;99.90
48535;DHT22;34323;52.022;5.686;2023-08-12T13:28:01;30.90;99.90
48535;DHT22;34323;52.022;5.686;2023-08-12T13:30:28;31.50;99.90
48535;DHT22;34323;52.022;5.686;2023-08-12T13:32:54;32.30;99.90
48535;DHT22;34323;52.022;5.686;2023-08-12T13:35:20;32.40;99.90
48535;DHT22;34323;52.022;5.686;2023-08-12T13:37:46;32.90;99.90
48535;DHT22;34323;52.022;5.686;2023-08-12T13:40:12;32.60;99.90
48535;DHT22;34323;52.022;5.686;2023-08-12T13:42:40;32.40;99.90
48535;DHT22;34323;52.022;5.686;2023-08-12T13:45:06;33.20;99.90
48535;DHT22;34323;52.022;5.686;2023-08-12T13:47:33;32.70;99.90
48535;DHT22;34323;52.022;5.686;2023-08-12T13:49:59;32.20;99.90
48535;DHT22;34323;52.022;5.686;2023-08-12T13:52:25;32.70;99.90
48535;DHT22;34323;52.022;5.686;2023-08-12T13:54:50;33.50;99.90
48535;DHT22;34323;52.022;5.686;2023-08-12T13:57:16;33.80;99.90
48535;DHT22;34323;52.022;5.686;2023-08-12T13:59:42;35.10;99.90
48535;DHT22;34323;52.022;5.686;2023-08-12T14:02:10;36.70;99.90
48535;DHT22;34323;52.022;5.686;2023-08-12T14:04:36;37.50;99.90
48535;DHT22;34323;52.022;5.686;2023-08-12T14:07:03;36.70;99.90
48535;DHT22;34323;52.022;5.686;2023-08-12T14:09:29;37.90;99.90
48535;DHT22;34323;52.022;5.686;2023-08-12T14:11:54;38.90;99.90
48535;DHT22;34323;52.022;5.686;2023-08-12T14:14:20;39.20;99.90
48535;DHT22;34323;52.022;5.686;2023-08-12T14:16:47;37.80;99.90
48535;DHT22;34323;52.022;5.686;2023-08-12T14:19:13;38.10;99.90
48535;DHT22;34323;52.022;5.686;2023-08-12T14:21:42;39.00;99.90
48535;DHT22;34323;52.022;5.686;2023-08-12T14:24:08;39.30;99.90
48535;DHT22;34323;52.022;5.686;2023-08-12T14:26:34;38.10;99.90
48535;DHT22;34323;52.022;5.686;2023-08-12T14:29:01;38.00;99.90
48535;DHT22;34323;52.022;5.686;2023-08-12T14:31:26;37.80;99.90
48535;DHT22;34323;52.022;5.686;2023-08-12T14:33:52;38.30;99.90
48535;DHT22;34323;52.022;5.686;2023-08-12T14:36:18;39.50;99.90
48535;DHT22;34323;52.022;5.686;2023-08-12T14:38:44;39.50;99.90
48535;DHT22;34323;52.022;5.686;2023-08-12T14:41:09;38.80;99.90
48535;DHT22;34323;52.022;5.686;2023-08-12T14:43:35;38.50;99.90
48535;DHT22;34323;52.022;5.686;2023-08-12T14:46:02;38.00;99.90
48535;DHT22;34323;52.022;5.686;2023-08-12T14:48:28;38.10;99.90
48535;DHT22;34323;52.022;5.686;2023-08-12T14:50:55;36.80;99.90
48535;DHT22;34323;52.022;5.686;2023-08-12T14:53:21;37.10;99.90
48535;DHT22;34323;52.022;5.686;2023-08-12T14:55:46;37.70;99.90
48535;DHT22;34323;52.022;5.686;2023-08-12T14:58:12;38.90;99.90
48535;DHT22;34323;52.022;5.686;2023-08-12T15:00:38;39.60;99.90
48535;DHT22;34323;52.022;5.686;2023-08-12T15:03:04;38.90;99.90
48535;DHT22;34323;52.022;5.686;2023-08-12T15:05:30;39.10;99.90
48535;DHT22;34323;52.022;5.686;2023-08-12T15:07:56;39.10;99.90
48535;DHT22;34323;52.022;5.686;2023-08-12T15:10:22;38.70;99.90
48535;DHT22;34323;52.022;5.686;2023-08-12T15:12:48;37.40;99.90
48535;DHT22;34323;52.022;5.686;2023-08-12T15:15:13;37.30;99.90
48535;DHT22;34323;52.022;5.686;2023-08-12T15:17:39;37.60;99.90
48535;DHT22;34323;52.022;5.686;2023-08-12T15:20:05;37.50;99.90
48535;DHT22;34323;52.022;5.686;2023-08-12T15:22:31;37.50;99.90
48535;DHT22;34323;52.022;5.686;2023-08-12T15:24:57;37.50;99.90
48535;DHT22;34323;52.022;5.686;2023-08-12T15:27:24;36.40;99.90
48535;DHT22;34323;52.022;5.686;2023-08-12T15:29:50;36.70;99.90
48535;DHT22;34323;52.022;5.686;2023-08-12T15:32:15;36.80;99.90